createdAt,value
2018-08-09T00:01:02.921Z,97.00
2018-08-09T00:03:31.578Z,97.00
2018-08-09T00:06:00.281Z,97.00
2018-08-09T00:08:29.067Z,96.70
2018-08-09T00:10:57.792Z,96.60
2018-08-09T00:13:26.514Z,96.30
2018-08-09T00:15:55.397Z,96.40
2018-08-09T00:18:24.387Z,96.30
2018-08-09T00:20:53.183Z,96.10
2018-08-09T00:23:22.065Z,96.00
2018-08-09T00:25:51.291Z,95.80
2018-08-09T00:28:19.897Z,95.80
2018-08-09T00:30:48.568Z,95.80
2018-08-09T00:33:17.229Z,95.70
2018-08-09T00:35:45.860Z,95.60
2018-08-09T00:38:14.445Z,95.80
2018-08-09T00:40:43.103Z,95.80
2018-08-09T00:43:11.603Z,95.80
2018-08-09T00:45:40.203Z,95.80
2018-08-09T00:48:08.719Z,96.00
2018-08-09T00:50:37.287Z,96.40
2018-08-09T00:53:05.842Z,96.20
2018-08-09T00:55:34.402Z,96.40
2018-08-09T00:58:02.934Z,96.50
2018-08-09T01:00:31.636Z,96.30
2018-08-09T01:03:00.552Z,96.70
2018-08-09T01:05:29.386Z,96.50
2018-08-09T01:07:58.037Z,96.60
2018-08-09T01:10:26.695Z,96.60
2018-08-09T01:12:55.537Z,96.80
2018-08-09T01:15:24.340Z,96.80
2018-08-09T01:17:53.091Z,96.80
2018-08-09T01:20:22.901Z,96.80
2018-08-09T01:22:51.893Z,96.80
2018-08-09T01:25:20.941Z,96.80
2018-08-09T01:27:49.842Z,96.80
2018-08-09T01:30:18.872Z,96.80
2018-08-09T01:32:47.578Z,96.80
2018-08-09T01:35:16.186Z,96.80
2018-08-09T01:37:44.790Z,96.80
2018-08-09T01:40:13.567Z,97.00
2018-08-09T01:42:53.410Z,97.10
2018-08-09T01:45:22.519Z,97.20
2018-08-09T01:47:51.948Z,97.40
2018-08-09T01:50:21.676Z,97.50
2018-08-09T01:52:50.610Z,97.90
2018-08-09T01:55:19.547Z,98.00
2018-08-09T01:57:48.512Z,98.20
2018-08-09T02:00:17.574Z,98.60
2018-08-09T02:02:46.239Z,98.50
2018-08-09T02:05:14.951Z,98.80
2018-08-09T02:07:43.454Z,98.90
2018-08-09T02:10:12.128Z,98.90
2018-08-09T02:12:40.674Z,99.20
2018-08-09T02:15:09.370Z,99.30
2018-08-09T02:17:37.893Z,99.30
2018-08-09T02:20:06.575Z,99.50
2018-08-09T02:22:35.262Z,99.60
2018-08-09T02:25:03.867Z,99.80
2018-08-09T02:27:32.574Z,99.80
2018-08-09T02:30:01.456Z,99.90
2018-08-09T02:32:30.118Z,99.90
2018-08-09T02:34:58.845Z,99.90
2018-08-09T02:37:27.518Z,99.90
2018-08-09T02:39:56.230Z,99.90
2018-08-09T02:42:25.120Z,99.90
2018-08-09T02:44:54.101Z,99.90
2018-08-09T02:47:22.929Z,99.90
2018-08-09T02:49:52.865Z,99.90
2018-08-09T02:52:22.048Z,99.90
2018-08-09T02:54:51.408Z,99.90
2018-08-09T02:57:20.766Z,99.90
2018-08-09T02:59:49.796Z,99.90
2018-08-09T03:02:18.775Z,99.90
2018-08-09T03:04:47.358Z,99.90
2018-08-09T03:07:15.966Z,99.90
2018-08-09T03:09:44.699Z,99.90
2018-08-09T03:12:13.298Z,99.90
2018-08-09T03:14:41.814Z,99.90
2018-08-09T03:17:10.455Z,99.90
2018-08-09T03:19:39.007Z,99.90
2018-08-09T03:22:07.607Z,99.90
2018-08-09T03:24:36.111Z,99.90
2018-08-09T03:27:04.723Z,99.90
2018-08-09T03:29:33.305Z,99.90
2018-08-09T03:32:01.993Z,99.90
2018-08-09T03:34:30.782Z,99.90
2018-08-09T03:36:59.639Z,99.90
2018-08-09T03:39:28.324Z,99.90
2018-08-09T03:41:57.048Z,99.90
2018-08-09T03:44:25.706Z,99.90
2018-08-09T03:46:54.589Z,99.90
2018-08-09T03:49:23.981Z,99.90
2018-08-09T03:51:53.716Z,99.90
2018-08-09T03:54:23.131Z,99.90
2018-08-09T03:56:52.193Z,99.90
2018-08-09T03:59:21.110Z,99.90
2018-08-09T04:01:51.326Z,99.90
2018-08-09T04:04:20.316Z,99.90
2018-08-09T04:06:50.090Z,99.90
2018-08-09T04:09:19.971Z,99.90
2018-08-09T04:11:48.916Z,99.90
2018-08-09T04:14:17.624Z,99.90
2018-08-09T04:16:46.527Z,99.90
2018-08-09T04:19:15.310Z,99.90
2018-08-09T04:21:44.013Z,99.90
2018-08-09T04:24:12.562Z,99.90
2018-08-09T04:26:41.242Z,99.90
2018-08-09T04:29:09.772Z,99.90
2018-08-09T04:31:38.350Z,99.90
2018-08-09T04:34:09.025Z,99.90
2018-08-09T04:36:41.980Z,99.90
2018-08-09T04:39:10.606Z,99.90
2018-08-09T04:41:39.167Z,99.90
2018-08-09T04:44:07.755Z,99.90
2018-08-09T04:46:36.317Z,99.90
2018-08-09T04:49:04.951Z,99.90
2018-08-09T04:51:33.496Z,99.90
2018-08-09T04:54:02.235Z,99.90
2018-08-09T04:56:30.938Z,99.90
2018-08-09T04:58:59.676Z,99.90
2018-08-09T05:01:28.505Z,99.90
2018-08-09T05:03:57.454Z,99.90
2018-08-09T05:06:26.158Z,99.90
2018-08-09T05:08:55.162Z,99.90
2018-08-09T05:11:24.116Z,99.90
2018-08-09T05:13:53.209Z,99.90
2018-08-09T05:16:23.553Z,99.90
2018-08-09T05:18:52.823Z,99.90
2018-08-09T05:21:22.973Z,99.90
2018-08-09T05:23:51.953Z,99.90
2018-08-09T05:26:22.293Z,99.90
2018-08-09T05:28:51.390Z,99.90
2018-08-09T05:31:21.298Z,99.90
2018-08-09T05:33:50.847Z,99.90
2018-08-09T05:36:21.833Z,99.90
2018-08-09T05:38:51.338Z,99.90
2018-08-09T05:41:20.490Z,99.90
2018-08-09T05:43:49.936Z,99.90
2018-08-09T05:46:20.081Z,99.90
2018-08-09T05:48:50.289Z,99.90
2018-08-09T05:51:20.017Z,99.90
2018-08-09T05:53:49.379Z,98.80
2018-08-09T05:56:20.533Z,98.10
2018-08-09T05:58:50.350Z,97.80
2018-08-09T06:01:19.842Z,97.20
2018-08-09T06:03:48.695Z,97.40
2018-08-09T06:06:18.102Z,96.20
2018-08-09T06:08:46.878Z,96.50
2018-08-09T06:11:15.731Z,95.10
2018-08-09T06:13:44.369Z,95.10
2018-08-09T06:16:13.071Z,95.10
2018-08-09T06:18:41.762Z,95.00
2018-08-09T06:21:10.332Z,94.50
2018-08-09T06:23:38.976Z,94.30
2018-08-09T06:26:07.521Z,94.20
2018-08-09T06:28:36.241Z,92.80
2018-08-09T06:31:04.879Z,92.20
2018-08-09T06:33:33.698Z,91.80
2018-08-09T06:36:02.367Z,92.30
2018-08-09T06:38:31.191Z,91.90
2018-08-09T06:40:59.933Z,91.80
2018-08-09T06:43:28.899Z,91.60
2018-08-09T06:46:01.203Z,91.10
2018-08-09T06:48:29.933Z,91.60
2018-08-09T06:50:58.829Z,91.20
2018-08-09T06:53:27.932Z,91.90
2018-08-09T06:55:56.649Z,91.70
2018-08-09T06:58:25.345Z,91.00
2018-08-09T07:00:54.433Z,89.90
2018-08-09T07:03:24.110Z,89.30
2018-08-09T07:05:53.860Z,90.20
2018-08-09T07:08:23.048Z,89.10
2018-08-09T07:10:52.417Z,87.30
2018-08-09T07:13:21.574Z,87.70
2018-08-09T07:15:50.685Z,89.80
2018-08-09T07:18:21.428Z,84.50
2018-08-09T07:20:50.652Z,88.90
2018-08-09T07:23:20.444Z,84.10
2018-08-09T07:25:50.328Z,83.00
2018-08-09T07:28:20.014Z,84.40
2018-08-09T07:30:49.628Z,81.80
2018-08-09T07:33:18.541Z,82.30
2018-08-09T07:35:47.464Z,78.50
2018-08-09T07:38:16.185Z,77.90
2018-08-09T07:40:44.928Z,78.00
2018-08-09T07:43:13.521Z,78.80
2018-08-09T07:45:42.074Z,76.00
2018-08-09T07:48:10.656Z,78.20
2018-08-09T07:50:39.246Z,77.30
2018-08-09T07:53:07.898Z,74.80
2018-08-09T07:55:36.426Z,74.20
2018-08-09T07:58:05.090Z,74.30
2018-08-09T08:00:33.958Z,74.10
2018-08-09T08:03:02.822Z,71.30
2018-08-09T08:05:31.684Z,72.90
2018-08-09T08:08:00.604Z,70.10
2018-08-09T08:10:29.370Z,72.00
2018-08-09T08:12:58.094Z,72.50
2018-08-09T08:15:26.981Z,67.20
2018-08-09T08:17:55.872Z,63.70
2018-08-09T08:20:25.172Z,63.80
2018-08-09T08:22:54.124Z,63.60
2018-08-09T08:25:23.198Z,66.80
2018-08-09T08:27:52.423Z,67.30
2018-08-09T08:30:22.248Z,65.50
2018-08-09T08:32:51.829Z,64.20
2018-08-09T08:35:21.063Z,64.80
2018-08-09T08:37:50.501Z,65.30
2018-08-09T08:40:20.761Z,64.70
2018-08-09T08:42:50.387Z,63.30
2018-08-09T08:45:19.580Z,63.70
2018-08-09T08:47:49.617Z,62.60
2018-08-09T08:50:19.295Z,62.50
2018-08-09T08:52:48.872Z,57.70
2018-08-09T08:55:17.938Z,57.80
2018-08-09T08:57:46.452Z,57.40
2018-08-09T09:00:15.126Z,56.40
2018-08-09T09:02:43.795Z,58.30
2018-08-09T09:05:13.158Z,58.10
2018-08-09T09:07:41.955Z,57.00
2018-08-09T09:10:12.082Z,57.30
2018-08-09T09:12:40.618Z,56.20
2018-08-09T09:15:13.319Z,56.40
2018-08-09T09:17:42.777Z,57.40
2018-08-09T09:20:13.740Z,55.80
2018-08-09T09:22:42.883Z,56.10
2018-08-09T09:25:11.996Z,58.20
2018-08-09T09:27:40.503Z,58.30
2018-08-09T09:30:12.257Z,57.80
2018-08-09T09:32:40.822Z,57.70
2018-08-09T09:35:09.857Z,54.90
2018-08-09T09:37:38.801Z,56.90
2018-08-09T09:40:08.175Z,57.80
2018-08-09T09:42:37.197Z,58.20
2018-08-09T09:45:06.066Z,58.30
2018-08-09T09:47:34.772Z,59.30
2018-08-09T09:50:04.021Z,59.10
2018-08-09T09:52:32.861Z,58.90
2018-08-09T09:55:01.611Z,58.40
2018-08-09T09:57:30.320Z,61.90
2018-08-09T09:59:59.015Z,59.80
2018-08-09T10:02:27.801Z,59.30
2018-08-09T10:04:56.848Z,60.10
2018-08-09T10:07:26.148Z,63.80
2018-08-09T10:09:55.727Z,63.50
2018-08-09T10:12:25.311Z,61.30
2018-08-09T10:14:54.648Z,60.10
2018-08-09T10:17:23.961Z,61.50
2018-08-09T10:19:54.042Z,62.20
2018-08-09T10:22:23.627Z,62.90
2018-08-09T10:24:52.876Z,63.10
2018-08-09T10:27:22.097Z,62.90
2018-08-09T10:29:51.688Z,65.20
2018-08-09T10:32:21.567Z,64.10
2018-08-09T10:34:51.398Z,61.50
2018-08-09T10:37:22.230Z,61.80
2018-08-09T10:39:52.399Z,62.40
2018-08-09T10:42:21.744Z,63.00
2018-08-09T10:44:50.993Z,63.10
2018-08-09T10:47:20.062Z,61.80
2018-08-09T10:49:49.227Z,60.10
2018-08-09T10:52:18.291Z,60.50
2018-08-09T10:54:47.245Z,59.80
2018-08-09T10:57:15.928Z,60.80
2018-08-09T10:59:44.459Z,61.90
2018-08-09T11:02:13.301Z,59.80
2018-08-09T11:04:41.842Z,62.00
2018-08-09T11:07:10.428Z,61.00
2018-08-09T11:09:38.928Z,62.30
2018-08-09T11:12:07.518Z,64.20
2018-08-09T11:14:36.116Z,60.00
2018-08-09T11:17:04.710Z,59.30
2018-08-09T11:19:33.481Z,59.10
2018-08-09T11:22:02.428Z,59.20
2018-08-09T11:24:31.200Z,58.60
2018-08-09T11:26:59.873Z,58.50
2018-08-09T11:29:28.674Z,60.30
2018-08-09T11:31:57.443Z,58.30
2018-08-09T11:34:26.306Z,57.80
2018-08-09T11:36:55.497Z,57.70
2018-08-09T11:39:24.600Z,57.50
2018-08-09T11:41:54.022Z,57.40
2018-08-09T11:44:23.017Z,55.60
2018-08-09T11:46:52.515Z,54.90
2018-08-09T11:49:22.057Z,55.40
2018-08-09T11:51:51.958Z,56.00
2018-08-09T11:54:21.692Z,55.90
2018-08-09T11:56:50.954Z,55.90
2018-08-09T11:59:20.851Z,55.30
2018-08-09T12:01:51.330Z,55.30
2018-08-09T12:04:21.660Z,54.80
2018-08-09T12:06:51.089Z,54.30
2018-08-09T12:09:20.580Z,54.00
2018-08-09T12:11:51.017Z,54.00
2018-08-09T12:14:20.156Z,52.90
2018-08-09T12:16:49.236Z,53.40
2018-08-09T12:19:19.179Z,53.60
2018-08-09T12:21:49.602Z,52.40
2018-08-09T12:24:18.610Z,53.70
2018-08-09T12:26:47.227Z,52.00
2018-08-09T12:29:15.832Z,51.70
2018-08-09T12:31:44.405Z,51.30
2018-08-09T12:34:12.954Z,52.00
2018-08-09T12:36:41.632Z,50.90
2018-08-09T12:39:12.118Z,51.70
2018-08-09T12:41:40.896Z,52.00
2018-08-09T12:44:09.834Z,51.20
2018-08-09T12:46:38.374Z,50.70
2018-08-09T12:49:07.140Z,50.30
2018-08-09T12:51:35.732Z,50.20
2018-08-09T12:54:04.386Z,50.10
2018-08-09T12:56:32.903Z,46.80
2018-08-09T12:59:01.479Z,44.20
2018-08-09T13:01:30.025Z,43.40
2018-08-09T13:03:58.676Z,44.20
2018-08-09T13:06:27.405Z,44.70
2018-08-09T13:08:55.987Z,44.00
2018-08-09T13:11:24.951Z,44.60
2018-08-09T13:13:53.712Z,43.20
2018-08-09T13:16:22.341Z,44.10
2018-08-09T13:18:51.071Z,42.90
2018-08-09T13:21:19.692Z,43.00
2018-08-09T13:23:48.394Z,42.70
2018-08-09T13:26:16.940Z,43.50
2018-08-09T13:28:45.540Z,43.70
2018-08-09T13:31:14.138Z,44.00
2018-08-09T13:33:42.750Z,43.90
2018-08-09T13:36:11.248Z,44.40
2018-08-09T13:38:39.862Z,44.90
2018-08-09T13:41:08.455Z,43.90
2018-08-09T13:43:37.059Z,43.60
2018-08-09T13:46:05.803Z,43.40
2018-08-09T13:48:35.423Z,43.50
2018-08-09T13:51:04.021Z,43.20
2018-08-09T13:53:32.693Z,44.50
2018-08-09T13:56:01.339Z,44.20
2018-08-09T13:58:30.034Z,43.70
2018-08-09T14:00:58.590Z,43.60
2018-08-09T14:03:29.030Z,42.80
2018-08-09T14:05:59.425Z,42.50
2018-08-09T14:08:29.782Z,43.60
2018-08-09T14:11:00.017Z,42.30
2018-08-09T14:13:29.925Z,43.70
2018-08-09T14:16:04.068Z,42.90
2018-08-09T14:18:34.769Z,42.40
2018-08-09T14:21:05.705Z,42.60
2018-08-09T14:23:40.917Z,43.30
2018-08-09T14:26:11.241Z,42.30
2018-08-09T14:28:41.282Z,41.90
2018-08-09T14:31:10.879Z,42.10
2018-08-09T14:33:40.704Z,41.40
2018-08-09T14:36:09.716Z,42.00
2018-08-09T14:38:39.455Z,41.50
2018-08-09T14:41:09.824Z,41.40
2018-08-09T14:43:39.396Z,41.00
2018-08-09T14:46:08.954Z,41.70
2018-08-09T14:48:39.103Z,41.50
2018-08-09T14:51:09.078Z,40.40
2018-08-09T14:53:39.164Z,40.60
2018-08-09T14:56:09.426Z,41.60
2018-08-09T14:58:39.929Z,41.50
2018-08-09T15:01:09.711Z,41.70
2018-08-09T15:03:43.445Z,40.10
2018-08-09T15:06:13.419Z,40.90
2018-08-09T15:08:43.598Z,41.30
2018-08-09T15:11:13.909Z,41.20
2018-08-09T15:13:43.588Z,41.20
2018-08-09T15:16:13.251Z,41.00
2018-08-09T15:18:42.942Z,40.10
2018-08-09T15:21:12.430Z,39.80
2018-08-09T15:23:42.591Z,40.10
2018-08-09T15:26:12.683Z,40.00
2018-08-09T15:28:43.515Z,40.10
2018-08-09T15:31:12.888Z,40.80
2018-08-09T15:33:42.172Z,40.60
2018-08-09T15:36:11.998Z,40.10
2018-08-09T15:38:46.994Z,40.10
2018-08-09T15:41:17.368Z,40.50
2018-08-09T15:43:47.911Z,40.70
2018-08-09T15:46:18.643Z,40.20
2018-08-09T15:48:48.880Z,40.70
2018-08-09T15:51:18.453Z,40.80
2018-08-09T15:53:47.648Z,40.80
2018-08-09T15:56:18.449Z,41.10
2018-08-09T15:58:48.396Z,41.30
2018-08-09T16:01:18.550Z,41.60
2018-08-09T16:03:48.567Z,41.60
2018-08-09T16:06:18.291Z,41.90
2018-08-09T16:08:48.574Z,42.10
2018-08-09T16:11:19.499Z,42.30
2018-08-09T16:13:50.247Z,42.00
2018-08-09T16:16:19.890Z,42.30
2018-08-09T16:18:50.723Z,42.80
2018-08-09T16:21:20.357Z,41.80
2018-08-09T16:23:50.434Z,41.80
2018-08-09T16:26:20.396Z,42.10
2018-08-09T16:28:49.941Z,42.10
2018-08-09T16:31:21.465Z,42.50
2018-08-09T16:34:01.796Z,42.30
2018-08-09T16:36:35.456Z,42.10
2018-08-09T16:39:15.503Z,42.50
2018-08-09T16:41:49.033Z,42.80
2018-08-09T16:44:18.693Z,41.90
2018-08-09T16:46:49.351Z,41.90
2018-08-09T16:49:19.743Z,41.60
2018-08-09T16:51:49.360Z,42.40
2018-08-09T16:54:19.282Z,42.70
2018-08-09T16:56:49.190Z,42.30
2018-08-09T16:59:17.788Z,42.90
2018-08-09T17:01:46.382Z,42.90
2018-08-09T17:04:16.590Z,43.10
2018-08-09T17:06:46.126Z,44.00
2018-08-09T17:09:15.204Z,43.20
2018-08-09T17:11:44.964Z,43.30
2018-08-09T17:14:14.944Z,44.00
2018-08-09T17:16:44.093Z,43.50
2018-08-09T17:19:12.625Z,43.70
2018-08-09T17:21:41.323Z,44.10
2018-08-09T17:24:10.731Z,43.50
2018-08-09T17:26:39.605Z,43.60
2018-08-09T17:29:09.111Z,44.30
2018-08-09T17:31:37.677Z,44.40
2018-08-09T17:34:06.327Z,44.60
2018-08-09T17:36:34.905Z,45.40
2018-08-09T17:39:03.819Z,45.20
2018-08-09T17:41:32.395Z,46.10
2018-08-09T17:44:00.949Z,45.40
2018-08-09T17:46:29.537Z,45.60
2018-08-09T17:48:58.133Z,45.80
2018-08-09T17:51:26.685Z,46.80
2018-08-09T17:53:55.254Z,47.30
2018-08-09T17:56:23.820Z,47.60
2018-08-09T17:58:52.423Z,48.00
2018-08-09T18:01:20.996Z,48.30
2018-08-09T18:03:49.622Z,48.60
2018-08-09T18:06:18.219Z,49.30
2018-08-09T18:08:46.845Z,48.90
2018-08-09T18:11:15.795Z,49.00
2018-08-09T18:13:44.349Z,49.60
2018-08-09T18:16:12.881Z,51.20
2018-08-09T18:18:41.504Z,50.90
2018-08-09T18:21:10.026Z,51.20
2018-08-09T18:23:39.031Z,51.60
2018-08-09T18:26:07.670Z,52.30
2018-08-09T18:28:36.223Z,51.60
2018-08-09T18:31:04.808Z,52.90
2018-08-09T18:33:33.486Z,52.50
2018-08-09T18:36:02.019Z,53.00
2018-08-09T18:38:30.641Z,53.20
2018-08-09T18:40:59.237Z,53.40
2018-08-09T18:43:27.818Z,53.70
2018-08-09T18:45:56.428Z,54.60
2018-08-09T18:48:24.993Z,53.40
2018-08-09T18:50:53.636Z,53.90
2018-08-09T18:53:22.205Z,54.70
2018-08-09T18:55:50.789Z,54.30
2018-08-09T18:58:19.374Z,54.00
2018-08-09T19:00:47.919Z,53.70
2018-08-09T19:03:16.496Z,53.70
2018-08-09T19:05:45.058Z,54.20
2018-08-09T19:08:13.674Z,53.80
2018-08-09T19:10:42.814Z,54.30
2018-08-09T19:13:11.460Z,54.70
2018-08-09T19:15:40.829Z,54.40
2018-08-09T19:18:10.462Z,54.30
2018-08-09T19:20:39.031Z,54.20
2018-08-09T19:23:07.669Z,54.20
2018-08-09T19:25:36.289Z,54.30
2018-08-09T19:28:04.948Z,55.10
2018-08-09T19:30:33.490Z,56.20
2018-08-09T19:33:02.139Z,58.30
2018-08-09T19:35:30.688Z,59.50
2018-08-09T19:37:59.986Z,62.10
2018-08-09T19:40:30.266Z,66.50
2018-08-09T19:42:59.800Z,71.40
2018-08-09T19:45:28.531Z,77.10
2018-08-09T19:47:57.149Z,86.60
2018-08-09T19:50:38.065Z,93.40
2018-08-09T19:56:00.816Z,99.90
2018-08-09T19:58:29.472Z,99.90
2018-08-09T20:00:58.207Z,99.90
2018-08-09T20:03:26.934Z,99.90
2018-08-09T20:05:55.670Z,99.90
2018-08-09T20:08:24.505Z,99.90
2018-08-09T20:10:53.334Z,99.90
2018-08-09T20:13:22.215Z,99.90
2018-08-09T20:15:50.824Z,99.90
2018-08-09T20:18:19.628Z,99.90
2018-08-09T20:20:48.312Z,99.90
2018-08-09T20:23:17.725Z,99.90
2018-08-09T20:25:46.489Z,99.90
2018-08-09T20:28:15.340Z,99.90
2018-08-09T20:30:44.017Z,99.90
2018-08-09T20:33:12.858Z,99.90
2018-08-09T20:35:41.546Z,99.90
2018-08-09T20:38:10.448Z,99.90
2018-08-09T20:40:39.284Z,99.90
2018-08-09T20:43:08.042Z,99.90
2018-08-09T20:45:36.798Z,99.90
2018-08-09T20:48:05.701Z,99.90
2018-08-09T20:50:34.588Z,99.90
2018-08-09T20:53:03.322Z,99.90
2018-08-09T20:55:32.176Z,99.90
2018-08-09T20:58:01.142Z,99.90
2018-08-09T21:00:31.435Z,99.90
2018-08-09T21:03:00.810Z,99.90
2018-08-09T21:05:30.930Z,99.90
2018-08-09T21:07:59.519Z,99.90
2018-08-09T21:10:28.639Z,99.90
2018-08-09T21:12:57.302Z,99.90
2018-08-09T21:15:25.967Z,99.90
2018-08-09T21:17:54.576Z,99.90
2018-08-09T21:20:23.816Z,99.90
2018-08-09T21:22:52.567Z,99.90
2018-08-09T21:25:21.201Z,99.90
2018-08-09T21:27:50.123Z,99.90
2018-08-09T21:30:20.060Z,99.90
2018-08-09T21:32:49.131Z,99.90
2018-08-09T21:35:17.721Z,99.90
2018-08-09T21:37:46.595Z,99.90
2018-08-09T21:40:15.740Z,99.90
2018-08-09T21:42:44.332Z,99.90
2018-08-09T21:45:14.901Z,99.90
2018-08-09T21:47:43.482Z,99.90
2018-08-09T21:50:14.339Z,99.90
2018-08-09T21:52:43.018Z,99.90
2018-08-09T21:55:12.467Z,99.90
2018-08-09T21:57:41.730Z,99.90
2018-08-09T22:00:18.708Z,99.90
2018-08-09T22:02:47.235Z,99.90
2018-08-09T22:05:21.220Z,99.90
2018-08-09T22:07:55.100Z,99.90
2018-08-09T22:10:29.034Z,99.90
2018-08-09T22:13:03.036Z,99.90
2018-08-09T22:15:36.839Z,99.90
2018-08-09T22:18:10.852Z,99.90
2018-08-09T22:20:44.610Z,99.90
2018-08-09T22:23:13.198Z,99.90
2018-08-09T22:25:41.735Z,99.90
2018-08-09T22:28:10.302Z,99.90
2018-08-09T22:33:31.579Z,99.90
2018-08-09T22:36:00.167Z,99.90
2018-08-09T22:38:29.275Z,99.90
2018-08-09T22:40:57.908Z,99.90
2018-08-09T22:43:26.538Z,99.90
2018-08-09T22:45:55.071Z,99.90
2018-08-09T22:48:23.626Z,99.90
2018-08-09T22:50:52.229Z,99.90
2018-08-09T22:53:20.804Z,99.90
2018-08-09T22:55:49.410Z,99.90
2018-08-09T22:58:18.029Z,99.90
2018-08-09T23:00:46.616Z,99.90
2018-08-09T23:03:15.327Z,99.90
2018-08-09T23:05:43.874Z,99.90
2018-08-09T23:08:13.739Z,99.90
2018-08-09T23:10:43.249Z,99.90
2018-08-09T23:13:12.791Z,99.90
2018-08-09T23:15:42.091Z,99.90
2018-08-09T23:18:10.783Z,99.90
2018-08-09T23:20:39.832Z,99.90
2018-08-09T23:23:08.466Z,99.90
2018-08-09T23:25:37.071Z,99.90
2018-08-09T23:28:06.391Z,99.90
2018-08-09T23:30:35.055Z,99.90
2018-08-09T23:33:03.767Z,99.90
2018-08-09T23:35:32.404Z,99.90
2018-08-09T23:38:01.011Z,99.90
2018-08-09T23:40:29.620Z,99.90
2018-08-09T23:42:58.233Z,99.90
2018-08-09T23:45:26.846Z,99.90
2018-08-09T23:47:55.473Z,99.90
2018-08-09T23:50:24.121Z,99.90
2018-08-09T23:52:52.707Z,99.90
2018-08-09T23:55:21.286Z,99.90
2018-08-09T23:57:49.853Z,99.90
